Time;durP1;ratioP1;P1;durP2;ratioP2;P2;SDS_P1;SDS_P2;PMS_P1;PMS_P2;Temp;Humidity;BMP_temperature;BMP_pressure;BME280_temperature;BME280_humidity;BME280_pressure;Samples;Min_cycle;Max_cycle;Signal;HPM_P1;HPM_P2
2022/07/13 00:00:46;;;;;;;1.05;0.93;;;11.50;99.90;;;;;;5013620;28;20105;-71
2022/07/13 00:03:15;;;;;;;2.05;1.10;;;11.60;99.90;;;;;;5006088;28;20040;-72
2022/07/13 00:05:42;;;;;;;1.33;0.80;;;11.60;99.90;;;;;;5017597;28;20053;-70
2022/07/13 00:08:09;;;;;;;1.40;0.82;;;11.60;99.90;;;;;;5007383;28;20026;-69
2022/07/13 00:10:37;;;;;;;0.93;0.80;;;11.70;99.90;;;;;;5008354;28;20116;-67
2022/07/13 00:13:04;;;;;;;1.98;0.60;;;11.70;99.90;;;;;;5006590;28;20022;-71
2022/07/13 00:15:32;;;;;;;1.92;0.70;;;11.80;99.90;;;;;;5007811;28;20030;-73
2022/07/13 00:18:00;;;;;;;1.58;0.70;;;11.80;99.90;;;;;;5021333;28;20018;-70
2022/07/13 00:20:27;;;;;;;2.08;1.30;;;11.90;99.90;;;;;;5007197;28;20037;-72
2022/07/13 00:22:55;;;;;;;0.65;0.60;;;11.90;99.90;;;;;;5000764;28;20034;-72
2022/07/13 00:25:23;;;;;;;1.48;0.80;;;12.00;99.90;;;;;;5004996;28;20501;-69
2022/07/13 00:27:50;;;;;;;1.52;0.80;;;12.10;99.90;;;;;;5006866;28;20033;-68
2022/07/13 00:30:17;;;;;;;0.77;0.70;;;12.20;99.90;;;;;;5006102;28;20033;-70
2022/07/13 00:32:45;;;;;;;2.65;0.60;;;12.20;99.90;;;;;;5020266;28;20020;-73
2022/07/13 00:35:12;;;;;;;1.35;0.80;;;12.30;99.90;;;;;;5010395;28;20060;-68
2022/07/13 00:37:39;;;;;;;2.28;0.75;;;12.30;99.90;;;;;;5026020;28;20056;-72
2022/07/13 00:40:07;;;;;;;2.22;0.90;;;12.40;99.90;;;;;;5025735;28;20048;-70
2022/07/13 00:42:35;;;;;;;1.65;0.90;;;12.40;99.90;;;;;;5020440;28;20108;-71
2022/07/13 00:45:02;;;;;;;1.95;1.02;;;12.50;99.90;;;;;;5006592;28;20052;-64
2022/07/13 00:47:32;;;;;;;2.55;0.80;;;12.60;99.90;;;;;;5009273;28;20498;-70
2022/07/13 00:50:07;;;;;;;2.05;0.80;;;12.70;99.90;;;;;;5001747;28;20030;-68
2022/07/13 00:52:39;;;;;;;1.63;0.70;;;12.70;99.90;;;;;;5005647;28;20075;-67
2022/07/13 00:55:07;;;;;;;2.05;1.00;;;12.80;99.90;;;;;;5005698;28;20034;-67
2022/07/13 00:57:36;;;;;;;1.15;0.80;;;13.00;99.90;;;;;;5021416;28;20061;-66
2022/07/13 01:00:10;;;;;;;1.42;0.70;;;13.10;99.90;;;;;;5024122;28;20037;-68
2022/07/13 01:02:41;;;;;;;2.10;0.75;;;13.20;99.90;;;;;;5005238;28;20033;-69
2022/07/13 01:05:11;;;;;;;1.17;0.80;;;13.30;99.90;;;;;;5004317;28;20030;-69
2022/07/13 01:07:38;;;;;;;2.75;0.70;;;13.30;99.90;;;;;;5014585;28;20018;-67
2022/07/13 01:10:09;;;;;;;2.85;1.35;;;13.40;99.90;;;;;;5004988;28;20037;-70
2022/07/13 01:12:37;;;;;;;1.85;1.00;;;13.50;99.90;;;;;;5005699;28;20763;-67
2022/07/13 01:15:06;;;;;;;2.60;0.90;;;13.70;99.90;;;;;;5013577;28;20029;-73
2022/07/13 01:17:34;;;;;;;1.92;1.10;;;13.80;99.90;;;;;;5008150;28;20378;-70
2022/07/13 01:20:03;;;;;;;3.05;1.20;;;13.90;99.90;;;;;;5005841;28;20025;-73
2022/07/13 01:22:38;;;;;;;1.52;0.90;;;13.90;99.90;;;;;;5005151;28;20030;-70
2022/07/13 01:25:06;;;;;;;2.70;0.82;;;14.00;99.90;;;;;;5007460;28;20109;-71
2022/07/13 01:27:36;;;;;;;4.65;1.20;;;14.20;99.90;;;;;;5013462;28;20019;-70
2022/07/13 01:30:05;;;;;;;3.72;1.10;;;14.20;99.90;;;;;;5019176;28;20395;-73
2022/07/13 01:32:52;;;;;;;2.35;1.25;;;14.20;99.90;;;;;;5004862;28;20080;-69
2022/07/13 01:35:21;;;;;;;2.88;1.10;;;14.20;99.90;;;;;;5007723;28;20026;-69
2022/07/13 01:37:49;;;;;;;3.67;1.33;;;14.10;99.90;;;;;;5014673;28;20450;-71
2022/07/13 01:40:17;;;;;;;4.05;1.35;;;14.10;99.90;;;;;;5005018;28;20052;-72
2022/07/13 01:42:52;;;;;;;5.63;1.25;;;14.20;99.90;;;;;;5009291;28;20037;-71
2022/07/13 01:45:22;;;;;;;2.72;1.23;;;14.40;99.90;;;;;;5005944;28;20490;-67
2022/07/13 01:47:51;;;;;;;4.88;1.02;;;14.50;99.90;;;;;;5023831;28;20029;-65
2022/07/13 01:50:22;;;;;;;2.65;1.08;;;14.50;99.60;;;;;;5018369;28;20414;-69
2022/07/13 01:52:50;;;;;;;2.28;0.90;;;14.50;99.70;;;;;;5006816;28;20022;-71
2022/07/13 01:55:18;;;;;;;2.42;0.93;;;14.60;99.30;;;;;;5003314;28;20104;-70
2022/07/13 01:57:45;;;;;;;2.97;1.73;;;14.50;99.40;;;;;;5006195;28;20049;-68
2022/07/13 02:00:17;;;;;;;2.63;1.10;;;14.50;99.20;;;;;;5004831;28;20022;-70
2022/07/13 02:02:45;;;;;;;4.18;1.48;;;14.60;99.30;;;;;;5013268;28;20022;-70
2022/07/13 02:05:13;;;;;;;2.17;1.02;;;14.60;98.80;;;;;;5019214;28;20272;-69
2022/07/13 02:07:43;;;;;;;3.83;1.65;;;14.70;99.00;;;;;;5003485;28;20149;-71
2022/07/13 02:10:12;;;;;;;5.85;3.95;;;14.80;98.90;;;;;;5008133;28;20029;-67
2022/07/13 02:12:40;;;;;;;2.70;1.20;;;14.80;98.60;;;;;;5003605;28;20022;-68
2022/07/13 02:15:09;;;;;;;2.78;1.02;;;14.90;98.00;;;;;;5007246;28;20033;-72
2022/07/13 02:17:37;;;;;;;2.95;0.88;;;14.90;98.00;;;;;;5021477;28;20021;-72
2022/07/13 02:20:04;;;;;;;3.53;1.75;;;14.90;98.20;;;;;;5017323;28;20255;-75
2022/07/13 02:22:47;;;;;;;2.83;1.55;;;14.90;98.70;;;;;;5002800;28;20482;-70
2022/07/13 02:25:15;;;;;;;3.65;2.33;;;14.80;99.00;;;;;;5026605;28;20027;-71
2022/07/13 02:27:43;;;;;;;7.50;5.03;;;14.80;99.00;;;;;;4999876;28;20387;-72
2022/07/13 02:30:12;;;;;;;9.48;6.25;;;14.80;99.00;;;;;;5014262;28;20037;-69
2022/07/13 02:32:40;;;;;;;6.40;3.38;;;14.90;99.20;;;;;;5010750;28;20034;-71
2022/07/13 02:35:08;;;;;;;5.15;3.33;;;15.00;98.70;;;;;;5023648;28;20385;-71
2022/07/13 02:37:35;;;;;;;4.78;2.08;;;15.10;98.40;;;;;;5011766;28;20421;-70
2022/07/13 02:40:04;;;;;;;4.22;1.30;;;15.20;98.20;;;;;;5003313;28;20022;-66
2022/07/13 02:42:31;;;;;;;3.97;1.33;;;15.40;98.00;;;;;;5020190;28;20512;-67
2022/07/13 02:44:58;;;;;;;6.35;2.20;;;15.30;97.70;;;;;;5004575;28;20061;-68
2022/07/13 02:47:26;;;;;;;5.22;2.25;;;15.30;97.90;;;;;;5004496;28;20018;-67
2022/07/13 02:49:53;;;;;;;5.68;2.65;;;15.60;97.80;;;;;;4998194;28;20598;-68
2022/07/13 02:52:20;;;;;;;6.30;2.80;;;15.80;97.80;;;;;;4998657;28;20030;-69
2022/07/13 02:54:48;;;;;;;6.03;2.80;;;16.00;97.20;;;;;;4994235;28;20041;-66
2022/07/13 02:57:15;;;;;;;3.72;1.55;;;16.30;96.90;;;;;;4994594;28;20050;-72
2022/07/13 02:59:42;;;;;;;5.43;2.35;;;16.40;96.50;;;;;;5001550;28;20030;-72
2022/07/13 03:02:10;;;;;;;7.10;3.03;;;16.40;96.50;;;;;;5002825;28;20026;-72
2022/07/13 03:04:38;;;;;;;3.08;2.00;;;16.30;96.40;;;;;;5003890;28;20046;-71
2022/07/13 03:07:05;;;;;;;3.20;1.50;;;16.20;96.00;;;;;;5002747;28;20022;-68
2022/07/13 03:09:32;;;;;;;4.18;1.77;;;15.90;95.90;;;;;;5003326;28;20108;-68
2022/07/13 03:12:00;;;;;;;4.50;1.80;;;15.70;95.70;;;;;;5001438;28;20026;-70
2022/07/13 03:14:27;;;;;;;4.90;2.63;;;15.50;95.70;;;;;;5002095;28;20026;-68
2022/07/13 03:16:54;;;;;;;8.27;5.95;;;15.30;95.60;;;;;;5002133;28;20044;-68
2022/07/13 03:19:22;;;;;;;7.97;5.30;;;15.10;95.90;;;;;;5002455;28;20013;-69
2022/07/13 03:21:49;;;;;;;3.08;1.42;;;15.20;95.90;;;;;;4999793;28;20096;-70
2022/07/13 03:24:16;;;;;;;2.38;1.50;;;15.20;95.80;;;;;;5000479;28;20564;-68
2022/07/13 03:26:44;;;;;;;3.20;1.25;;;15.30;95.70;;;;;;5001997;28;20044;-69
2022/07/13 03:29:11;;;;;;;2.85;1.15;;;15.40;95.40;;;;;;5001992;28;20014;-67
2022/07/13 03:31:38;;;;;;;1.15;0.80;;;15.30;95.10;;;;;;5002276;28;20076;-67
2022/07/13 03:34:06;;;;;;;2.00;1.00;;;15.40;95.20;;;;;;5002155;28;20029;-68
2022/07/13 03:36:33;;;;;;;3.83;1.15;;;15.30;95.40;;;;;;5000162;28;20149;-70
2022/07/13 03:39:00;;;;;;;2.58;1.30;;;15.30;95.40;;;;;;5001934;28;20014;-70
2022/07/13 03:41:27;;;;;;;3.08;0.93;;;15.30;95.10;;;;;;5001388;28;20029;-69
2022/07/13 03:43:55;;;;;;;3.05;1.45;;;15.30;95.20;;;;;;5000764;28;20092;-69
2022/07/13 03:46:22;;;;;;;2.75;1.10;;;15.30;95.10;;;;;;5001281;28;20037;-72
2022/07/13 03:48:49;;;;;;;1.73;0.95;;;15.40;94.90;;;;;;5000821;28;20018;-69
2022/07/13 03:51:17;;;;;;;1.88;1.00;;;15.70;94.90;;;;;;5000836;28;20036;-69
2022/07/13 03:53:44;;;;;;;1.10;0.80;;;15.90;94.50;;;;;;5001873;28;20393;-69
2022/07/13 03:56:12;;;;;;;2.03;1.05;;;16.00;94.10;;;;;;5001624;28;20046;-71
2022/07/13 03:58:39;;;;;;;1.52;0.90;;;16.00;94.00;;;;;;4998452;28;20503;-69
2022/07/13 04:01:06;;;;;;;6.28;1.10;;;15.90;94.10;;;;;;4999751;28;20498;-69
2022/07/13 04:03:34;;;;;;;1.27;0.82;;;16.00;94.20;;;;;;5001552;28;20538;-68
2022/07/13 04:06:01;;;;;;;1.63;0.90;;;16.00;93.90;;;;;;5001977;28;20640;-69
2022/07/13 04:08:28;;;;;;;1.17;0.70;;;15.70;93.80;;;;;;4995080;28;20022;-67
2022/07/13 04:10:55;;;;;;;1.17;0.80;;;15.50;94.30;;;;;;5000487;28;20144;-72
2022/07/13 04:13:24;;;;;;;2.83;0.60;;;15.30;94.50;;;;;;4999146;28;20028;-67
2022/07/13 04:15:51;;;;;;;1.30;1.00;;;15.10;94.70;;;;;;4999975;28;20018;-68
2022/07/13 04:18:18;;;;;;;1.20;1.10;;;15.00;95.30;;;;;;5000968;28;20363;-68
2022/07/13 04:20:46;;;;;;;0.70;0.70;;;14.90;95.40;;;;;;5000579;28;20025;-68
2022/07/13 04:23:13;;;;;;;1.73;0.93;;;14.80;95.30;;;;;;5002288;28;20033;-72
2022/07/13 04:25:40;;;;;;;1.30;0.80;;;14.80;95.50;;;;;;5005052;28;20018;-70
2022/07/13 04:28:08;;;;;;;1.70;0.82;;;14.80;95.40;;;;;;5005572;28;20041;-68
2022/07/13 04:30:35;;;;;;;2.10;1.25;;;14.80;96.00;;;;;;5005676;28;20108;-69
2022/07/13 04:33:02;;;;;;;1.20;0.90;;;14.90;96.10;;;;;;5005465;28;20033;-68
2022/07/13 04:35:30;;;;;;;1.50;0.95;;;14.90;96.10;;;;;;5004972;28;20105;-69
2022/07/13 04:37:57;;;;;;;4.63;1.35;;;15.00;95.90;;;;;;5004396;28;20442;-68
2022/07/13 04:40:24;;;;;;;1.02;0.68;;;15.10;95.80;;;;;;5004772;28;20018;-68
2022/07/13 04:42:51;;;;;;;3.92;0.82;;;15.20;95.50;;;;;;5004602;28;20026;-69
2022/07/13 04:45:19;;;;;;;2.40;0.85;;;15.20;95.20;;;;;;5004967;28;20030;-67
2022/07/13 04:47:46;;;;;;;1.73;0.70;;;15.30;95.30;;;;;;5004594;28;20049;-71
2022/07/13 04:50:14;;;;;;;1.08;0.93;;;15.30;95.20;;;;;;5004461;28;20026;-70
2022/07/13 04:52:41;;;;;;;1.23;0.85;;;15.30;95.00;;;;;;5003114;28;20018;-70
2022/07/13 04:55:09;;;;;;;2.30;0.88;;;15.30;94.90;;;;;;5008171;28;20038;-72
2022/07/13 04:57:37;;;;;;;1.45;0.88;;;15.20;95.10;;;;;;5005941;28;20505;-68
2022/07/13 05:00:06;;;;;;;1.98;0.73;;;15.00;95.10;;;;;;5006622;28;20029;-70
2022/07/13 05:02:34;;;;;;;2.35;0.80;;;14.90;95.20;;;;;;5005293;28;20490;-69
2022/07/13 05:05:01;;;;;;;1.38;0.90;;;14.70;95.40;;;;;;5005402;28;20120;-69
2022/07/13 05:07:29;;;;;;;2.75;0.95;;;14.60;95.50;;;;;;5004821;28;20029;-70
2022/07/13 05:09:57;;;;;;;1.67;1.10;;;14.50;96.00;;;;;;5006138;28;20021;-70
2022/07/13 05:12:24;;;;;;;2.08;0.88;;;14.50;96.30;;;;;;5010681;28;20064;-71
2022/07/13 05:14:52;;;;;;;2.58;1.50;;;14.40;96.10;;;;;;5031418;28;20076;-68
2022/07/13 05:17:19;;;;;;;2.17;1.10;;;14.40;96.40;;;;;;5004241;28;20561;-66
2022/07/13 05:19:47;;;;;;;2.58;1.40;;;14.30;96.60;;;;;;5005875;28;20022;-67
2022/07/13 05:22:15;;;;;;;1.77;1.25;;;14.30;96.70;;;;;;5002703;28;20310;-71
2022/07/13 05:24:43;;;;;;;2.30;1.63;;;14.30;96.90;;;;;;5004748;28;20104;-67
2022/07/13 05:27:11;;;;;;;4.90;2.10;;;14.30;97.00;;;;;;5006695;28;20025;-70
2022/07/13 05:29:39;;;;;;;4.43;1.70;;;14.30;97.20;;;;;;5024218;28;20040;-68
2022/07/13 05:32:06;;;;;;;1.23;0.95;;;14.30;96.80;;;;;;5024717;28;20029;-71
2022/07/13 05:34:34;;;;;;;1.30;1.05;;;14.30;96.70;;;;;;5004725;28;20014;-70
2022/07/13 05:37:01;;;;;;;3.40;1.48;;;14.30;96.80;;;;;;5005276;28;20034;-68
2022/07/13 05:39:29;;;;;;;4.30;2.35;;;14.30;97.00;;;;;;5004969;28;20014;-67
2022/07/13 05:42:00;;;;;;;2.15;1.20;;;14.20;96.60;;;;;;5005766;28;20054;-69
2022/07/13 05:44:28;;;;;;;2.80;1.27;;;14.20;96.60;;;;;;5003864;28;20120;-69
2022/07/13 05:46:57;;;;;;;4.43;1.38;;;14.10;96.60;;;;;;5005449;28;20018;-71
2022/07/13 05:49:24;;;;;;;2.55;1.10;;;14.10;96.50;;;;;;5021530;28;20025;-72
2022/07/13 05:51:53;;;;;;;2.25;1.05;;;14.10;96.30;;;;;;5022361;28;20036;-69
2022/07/13 05:54:20;;;;;;;1.15;0.85;;;14.10;96.40;;;;;;5005368;28;20030;-68
2022/07/13 05:56:47;;;;;;;1.85;1.52;;;14.00;96.50;;;;;;5010834;28;20041;-68
2022/07/13 05:59:15;;;;;;;5.00;2.65;;;14.00;96.70;;;;;;5023436;28;20030;-70
2022/07/13 06:01:42;;;;;;;1.65;1.10;;;13.90;96.80;;;;;;5024153;28;20576;-67
2022/07/13 06:04:10;;;;;;;4.65;2.17;;;13.90;96.80;;;;;;5021905;28;20093;-70
2022/07/13 06:06:37;;;;;;;5.13;2.58;;;13.90;97.10;;;;;;4986950;28;20026;-68
2022/07/13 06:09:04;;;;;;;2.00;0.90;;;13.90;96.90;;;;;;5004782;28;20026;-69
2022/07/13 06:11:32;;;;;;;2.88;1.85;;;13.80;96.90;;;;;;5003346;28;20076;-68
2022/07/13 06:13:59;;;;;;;2.53;0.85;;;13.70;96.80;;;;;;5004728;28;20092;-75
2022/07/13 06:16:26;;;;;;;2.00;1.00;;;13.70;97.10;;;;;;5002576;28;20386;-74
2022/07/13 06:18:54;;;;;;;1.45;0.90;;;13.70;97.00;;;;;;5004542;28;20113;-70
2022/07/13 06:21:21;;;;;;;1.25;0.80;;;13.70;96.90;;;;;;5003654;28;20022;-70
2022/07/13 06:23:48;;;;;;;1.75;1.10;;;13.60;97.00;;;;;;5004212;28;20036;-67
2022/07/13 06:26:15;;;;;;;2.08;1.25;;;13.60;96.80;;;;;;5002753;28;20505;-71
2022/07/13 06:28:43;;;;;;;1.88;1.10;;;13.60;97.20;;;;;;5003490;28;20037;-73
2022/07/13 06:31:10;;;;;;;1.20;1.05;;;13.60;97.00;;;;;;5003851;28;20064;-69
2022/07/13 06:33:38;;;;;;;2.03;0.85;;;13.50;96.70;;;;;;5003444;28;20056;-71
2022/07/13 06:36:06;;;;;;;1.55;0.95;;;13.50;96.80;;;;;;5008899;28;20474;-68
2022/07/13 06:38:33;;;;;;;1.25;0.75;;;13.50;96.90;;;;;;5003538;28;20040;-68
2022/07/13 06:41:00;;;;;;;1.27;0.90;;;13.50;96.90;;;;;;5035598;28;20048;-71
2022/07/13 06:43:28;;;;;;;1.38;1.00;;;13.50;96.70;;;;;;5003354;28;20877;-67
2022/07/13 06:45:55;;;;;;;1.33;0.75;;;13.50;96.90;;;;;;5004093;28;20022;-69
2022/07/13 06:48:22;;;;;;;3.00;1.00;;;13.40;96.90;;;;;;5003662;28;20110;-66
2022/07/13 06:50:50;;;;;;;1.00;0.90;;;13.40;96.80;;;;;;5003737;28;20714;-70
2022/07/13 06:53:17;;;;;;;3.97;1.38;;;13.40;97.00;;;;;;5008419;28;20037;-70
2022/07/13 06:55:45;;;;;;;1.42;0.98;;;13.40;97.00;;;;;;5019236;28;20018;-67
2022/07/13 06:58:12;;;;;;;1.95;1.33;;;13.40;97.10;;;;;;5023161;28;20564;-70
2022/07/13 07:00:39;;;;;;;1.65;1.05;;;13.40;97.10;;;;;;5022934;28;20156;-70
2022/07/13 07:03:06;;;;;;;1.95;1.00;;;13.30;97.10;;;;;;5003788;28;20042;-73
2022/07/13 07:05:34;;;;;;;1.60;1.23;;;13.30;97.40;;;;;;5001665;28;20034;-70
2022/07/13 07:08:02;;;;;;;1.90;0.95;;;13.40;97.40;;;;;;5019630;28;20068;-68
2022/07/13 07:10:29;;;;;;;1.33;0.80;;;13.30;97.30;;;;;;5008121;28;20038;-65
2022/07/13 07:12:57;;;;;;;1.77;0.80;;;13.30;97.30;;;;;;5003736;28;20030;-69
2022/07/13 07:15:24;;;;;;;1.23;1.00;;;13.20;97.60;;;;;;5009121;28;20037;-71
2022/07/13 07:17:51;;;;;;;3.40;2.38;;;13.20;97.60;;;;;;5003165;28;20513;-68
2022/07/13 07:20:19;;;;;;;1.60;1.00;;;13.20;97.90;;;;;;5003505;28;20693;-66
2022/07/13 07:22:46;;;;;;;1.85;1.10;;;13.10;97.90;;;;;;5002567;28;20574;-67
2022/07/13 07:25:15;;;;;;;2.22;1.20;;;13.10;98.00;;;;;;5003322;28;20061;-67
2022/07/13 07:27:43;;;;;;;1.48;0.85;;;13.00;98.10;;;;;;5003156;28;20414;-67
2022/07/13 07:30:11;;;;;;;2.50;1.45;;;12.90;98.10;;;;;;4998857;28;20516;-68
2022/07/13 07:32:39;;;;;;;2.03;1.20;;;12.90;98.20;;;;;;4991333;28;20409;-67
2022/07/13 07:35:10;;;;;;;3.35;1.15;;;12.90;98.40;;;;;;5005744;28;20091;-66
2022/07/13 07:37:39;;;;;;;2.70;1.20;;;12.90;98.30;;;;;;5000969;28;20429;-67
2022/07/13 07:40:08;;;;;;;3.20;1.80;;;12.90;98.30;;;;;;4991336;28;20026;-67
2022/07/13 07:42:36;;;;;;;4.70;3.15;;;12.80;98.50;;;;;;4995784;28;20048;-68
2022/07/13 07:45:05;;;;;;;2.10;1.33;;;12.90;98.60;;;;;;4997955;28;20483;-69
2022/07/13 07:47:32;;;;;;;1.92;1.08;;;12.90;98.80;;;;;;4999547;28;20038;-69
2022/07/13 07:49:59;;;;;;;2.50;1.83;;;12.90;98.50;;;;;;5001940;28;20025;-73
2022/07/13 07:52:27;;;;;;;3.45;2.00;;;12.80;98.60;;;;;;5001941;28;20053;-69
2022/07/13 07:55:06;;;;;;;4.18;1.77;;;12.90;98.50;;;;;;5004273;28;20450;-69
2022/07/13 07:57:45;;;;;;;4.38;3.53;;;12.90;98.40;;;;;;5000582;28;20125;-68
2022/07/13 08:00:13;;;;;;;2.10;1.00;;;12.90;98.40;;;;;;5003648;28;20029;-68
2022/07/13 08:02:43;;;;;;;4.78;3.65;;;12.90;98.30;;;;;;5002840;28;20026;-66
2022/07/13 08:05:11;;;;;;;5.53;3.78;;;12.90;98.10;;;;;;5006013;28;20033;-69
2022/07/13 08:07:43;;;;;;;4.47;3.00;;;12.90;98.40;;;;;;5004680;28;20033;-69
2022/07/13 08:10:12;;;;;;;2.10;1.55;;;12.90;98.50;;;;;;5010153;28;20052;-68
2022/07/13 08:12:40;;;;;;;6.25;4.75;;;12.90;98.70;;;;;;5006310;28;20030;-68
2022/07/13 08:15:08;;;;;;;2.90;1.73;;;12.90;99.70;;;;;;5007039;28;20080;-67
2022/07/13 08:17:40;;;;;;;33.47;24.98;;;12.90;99.80;;;;;;5006928;28;20049;-67
2022/07/13 08:20:08;;;;;;;27.65;21.77;;;12.90;99.90;;;;;;5006748;28;20017;-67
2022/07/13 08:22:36;;;;;;;4.38;2.78;;;12.90;99.90;;;;;;5006374;28;20335;-69
2022/07/13 08:25:03;;;;;;;6.93;5.13;;;12.80;99.90;;;;;;5004768;28;20036;-66
2022/07/13 08:27:32;;;;;;;9.13;6.28;;;12.70;99.90;;;;;;5005324;28;20026;-68
2022/07/13 08:30:00;;;;;;;8.00;4.18;;;12.70;99.90;;;;;;4998396;28;20026;-69
2022/07/13 08:32:28;;;;;;;5.50;3.53;;;12.60;99.90;;;;;;5005230;28;20022;-70
2022/07/13 08:40:26;;;;;;;5.97;3.75;;;12.40;99.90;;;;;;5005509;28;20033;-67
2022/07/13 08:42:53;;;;;;;4.80;3.50;;;12.30;99.90;;;;;;5004719;28;20033;-71
2022/07/13 08:45:20;;;;;;;6.15;4.20;;;12.30;99.90;;;;;;5005326;28;20040;-68
2022/07/13 08:47:48;;;;;;;6.18;3.63;;;12.30;99.90;;;;;;5009757;28;20389;-67
2022/07/13 08:50:16;;;;;;;5.07;2.50;;;12.30;99.90;;;;;;5026995;28;20036;-69
2022/07/13 08:52:44;;;;;;;5.40;3.08;;;12.30;99.90;;;;;;5026609;28;20386;-66
2022/07/13 08:55:11;;;;;;;7.38;4.50;;;12.20;99.90;;;;;;5026089;28;20043;-66
2022/07/13 08:57:40;;;;;;;8.00;5.68;;;12.30;99.90;;;;;;5008095;28;20042;-67
2022/07/13 09:00:11;;;;;;;10.43;5.22;;;12.20;99.90;;;;;;5005317;28;20144;-67
2022/07/13 09:02:39;;;;;;;8.63;5.70;;;12.20;99.90;;;;;;5006429;28;20037;-67
2022/07/13 09:05:09;;;;;;;6.38;4.38;;;12.10;99.90;;;;;;5005222;28;20026;-67
2022/07/13 09:07:37;;;;;;;7.07;4.32;;;12.20;99.90;;;;;;5024104;28;20075;-68
2022/07/13 09:10:05;;;;;;;8.50;6.18;;;12.20;99.90;;;;;;5024332;28;20026;-68
2022/07/13 09:12:33;;;;;;;7.20;5.88;;;12.20;99.90;;;;;;5026665;28;20120;-70
2022/07/13 09:15:06;;;;;;;7.18;5.18;;;12.20;99.90;;;;;;5025404;28;20632;-67
2022/07/13 09:17:40;;;;;;;6.95;3.97;;;12.20;99.90;;;;;;5026453;28;20072;-66
2022/07/13 09:20:22;;;;;;;3.58;3.17;;;12.20;99.90;;;;;;5025514;28;20037;-68
2022/07/13 09:22:49;;;;;;;3.33;2.23;;;12.10;99.90;;;;;;5025952;28;20028;-67
2022/07/13 09:25:32;;;;;;;3.22;2.38;;;12.10;99.90;;;;;;5024325;28;20392;-67
2022/07/13 09:28:13;;;;;;;3.22;1.70;;;12.10;99.90;;;;;;5005281;28;20028;-67
2022/07/13 09:30:45;;;;;;;3.15;1.92;;;12.10;99.90;;;;;;5006234;28;20482;-68
2022/07/13 09:33:12;;;;;;;4.90;3.33;;;12.00;99.90;;;;;;5005049;28;20510;-67
2022/07/13 09:35:44;;;;;;;4.85;3.40;;;12.10;99.90;;;;;;5005815;28;20139;-66
2022/07/13 09:38:31;;;;;;;7.80;6.63;;;12.10;99.90;;;;;;5004880;28;20022;-66
2022/07/13 09:41:22;;;;;;;8.18;6.28;;;12.10;99.90;;;;;;5010634;28;20056;-69
2022/07/13 09:47:00;;;;;;;6.75;4.70;;;12.00;99.90;;;;;;5020846;28;20040;-66
2022/07/13 09:49:45;;;;;;;7.35;4.90;;;12.00;99.90;;;;;;5015281;28;20112;-67
2022/07/13 09:52:17;;;;;;;7.88;4.32;;;12.00;99.90;;;;;;5004605;28;20084;-66
2022/07/13 09:54:51;;;;;;;7.45;5.05;;;11.90;99.90;;;;;;5018826;28;20083;-66
2022/07/13 09:57:22;;;;;;;6.63;5.03;;;11.90;99.90;;;;;;5024355;28;20053;-66
2022/07/13 09:59:50;;;;;;;11.32;8.18;;;11.80;99.90;;;;;;5025088;28;20030;-65
2022/07/13 10:02:18;;;;;;;8.77;6.68;;;11.80;99.90;;;;;;4989253;28;20022;-68
2022/07/13 10:04:47;;;;;;;8.57;4.20;;;11.80;99.90;;;;;;5004674;28;20045;-69
2022/07/13 10:07:14;;;;;;;7.07;5.20;;;11.70;99.90;;;;;;5004869;28;20018;-66
2022/07/13 10:09:42;;;;;;;8.93;5.03;;;11.70;99.90;;;;;;5015633;28;20064;-69
2022/07/13 10:12:10;;;;;;;9.70;6.32;;;11.60;99.90;;;;;;5024346;28;20017;-66
2022/07/13 10:14:39;;;;;;;6.97;4.13;;;11.60;99.90;;;;;;5025457;28;20017;-67
2022/07/13 10:17:12;;;;;;;5.65;3.38;;;11.60;99.90;;;;;;5024185;28;20029;-65
2022/07/13 10:20:15;;;;;;;9.45;4.30;;;11.50;99.90;;;;;;5024964;28;20032;-65
2022/07/13 10:22:51;;;;;;;11.57;9.38;;;11.50;99.90;;;;;;4985470;28;20145;-70
2022/07/13 10:25:19;;;;;;;10.25;6.90;;;11.50;99.90;;;;;;5034493;28;20034;-67
2022/07/13 10:28:02;;;;;;;10.85;7.47;;;11.40;99.90;;;;;;5005489;28;20026;-65
2022/07/13 10:30:30;;;;;;;9.70;5.88;;;11.40;99.90;;;;;;5005197;28;20037;-66
2022/07/13 10:33:21;;;;;;;19.83;11.88;;;11.40;99.90;;;;;;5005485;28;20033;-64
2022/07/13 10:35:51;;;;;;;13.57;9.90;;;11.30;99.90;;;;;;5005152;28;20025;-65
2022/07/13 10:38:22;;;;;;;13.55;10.10;;;11.30;99.90;;;;;;5003972;28;20128;-65
2022/07/13 10:40:50;;;;;;;11.40;8.20;;;11.30;99.90;;;;;;5004216;28;20030;-65
2022/07/13 10:43:18;;;;;;;10.23;6.45;;;11.20;99.90;;;;;;5003982;28;20041;-65
2022/07/13 10:45:55;;;;;;;7.72;5.25;;;11.30;99.90;;;;;;5005021;28;20049;-66
2022/07/13 10:48:25;;;;;;;7.43;3.97;;;11.30;99.90;;;;;;5003695;28;20041;-65
2022/07/13 10:51:00;;;;;;;8.00;4.85;;;11.30;99.90;;;;;;5004627;28;20033;-66
2022/07/13 10:53:43;;;;;;;6.63;3.88;;;11.20;99.90;;;;;;5004264;28;20105;-66
2022/07/13 10:56:21;;;;;;;8.35;4.30;;;11.20;99.90;;;;;;5003738;28;20057;-67
2022/07/13 10:58:50;;;;;;;6.78;3.63;;;11.20;99.90;;;;;;5020172;28;20030;-66
2022/07/13 11:01:36;;;;;;;6.78;4.05;;;11.20;99.90;;;;;;5023544;28;20025;-65
2022/07/13 11:04:05;;;;;;;7.30;4.68;;;11.20;99.90;;;;;;5024066;28;20037;-66
2022/07/13 11:06:33;;;;;;;6.75;4.13;;;11.20;99.90;;;;;;5024631;28;20026;-65
2022/07/13 11:09:15;;;;;;;5.82;3.80;;;11.20;99.90;;;;;;5024495;28;20560;-66
2022/07/13 11:11:47;;;;;;;9.82;5.20;;;11.20;99.90;;;;;;5024355;28;20532;-65
2022/07/13 11:14:42;;;;;;;8.35;5.80;;;11.20;99.90;;;;;;5023257;28;20021;-65
2022/07/13 11:17:21;;;;;;;7.07;4.80;;;11.20;99.90;;;;;;5006549;28;20061;-65
2022/07/13 11:20:10;;;;;;;9.85;8.27;;;11.10;99.90;;;;;;5011344;28;20026;-65
2022/07/13 11:25:58;;;;;;;8.88;6.28;;;11.00;99.90;;;;;;5024616;28;20075;-66
2022/07/13 11:28:36;;;;;;;8.18;6.28;;;11.00;99.90;;;;;;5023443;28;20029;-66
2022/07/13 11:31:05;;;;;;;10.10;7.38;;;11.00;99.90;;;;;;5024189;28;20061;-66
2022/07/13 11:33:32;;;;;;;11.27;7.18;;;10.90;99.90;;;;;;5024810;28;20502;-66
2022/07/13 11:36:00;;;;;;;13.52;10.05;;;10.90;99.90;;;;;;5019434;28;20022;-66
2022/07/13 11:38:36;;;;;;;9.73;7.95;;;10.80;99.90;;;;;;5007779;28;20478;-66
2022/07/13 11:41:05;;;;;;;10.88;8.70;;;10.90;99.90;;;;;;5008074;28;20030;-67
2022/07/13 11:43:32;;;;;;;11.07;8.23;;;10.80;99.90;;;;;;5007325;28;20034;-67
2022/07/13 11:45:59;;;;;;;8.85;6.97;;;10.80;99.90;;;;;;5008363;28;20539;-67
2022/07/13 11:48:32;;;;;;;9.75;6.80;;;10.80;99.90;;;;;;5019797;28;20091;-67
2022/07/13 11:50:59;;;;;;;9.30;7.18;;;10.70;99.90;;;;;;5027629;28;20021;-67
2022/07/13 11:53:30;;;;;;;8.82;6.35;;;10.80;99.90;;;;;;5027244;28;20448;-65
2022/07/13 11:56:03;;;;;;;8.73;5.18;;;10.70;99.90;;;;;;5022475;28;20509;-66
2022/07/13 11:58:33;;;;;;;6.00;5.40;;;10.70;99.90;;;;;;5007093;28;20038;-66
2022/07/13 12:01:08;;;;;;;7.38;5.53;;;10.60;99.90;;;;;;5007970;28;20044;-66
2022/07/13 12:03:36;;;;;;;7.30;4.97;;;10.60;99.90;;;;;;5006823;28;20481;-65
2022/07/13 12:06:08;;;;;;;6.93;4.90;;;10.50;99.90;;;;;;5008067;28;20041;-65
2022/07/13 12:08:37;;;;;;;7.13;4.53;;;10.50;99.90;;;;;;5006871;28;20026;-66
2022/07/13 12:11:07;;;;;;;8.68;4.47;;;10.50;99.90;;;;;;5016659;28;20030;-66
2022/07/13 12:13:36;;;;;;;7.10;3.95;;;10.50;99.90;;;;;;5006722;28;20045;-66
2022/07/13 12:16:05;;;;;;;5.82;3.40;;;10.50;99.90;;;;;;5016443;28;20032;-67
2022/07/13 12:18:51;;;;;;;5.50;4.47;;;10.40;99.90;;;;;;5026426;28;20021;-66
2022/07/13 12:21:18;;;;;;;5.80;3.78;;;10.40;99.90;;;;;;5026982;28;20060;-69
2022/07/13 12:23:49;;;;;;;6.22;4.18;;;10.30;99.90;;;;;;5027328;28;20083;-65
2022/07/13 12:26:16;;;;;;;4.40;3.40;;;10.30;99.90;;;;;;5025844;28;20104;-70
2022/07/13 12:28:44;;;;;;;4.78;4.00;;;10.30;99.90;;;;;;5026334;28;20108;-66
2022/07/13 12:31:11;;;;;;;4.45;3.53;;;10.30;99.90;;;;;;5026081;28;20478;-65
2022/07/13 12:33:50;;;;;;;6.85;4.38;;;10.30;99.90;;;;;;5026135;28;20032;-69
2022/07/13 12:36:20;;;;;;;4.68;3.78;;;10.30;99.90;;;;;;5026798;28;20482;-66
2022/07/13 12:39:01;;;;;;;4.43;3.45;;;10.20;99.90;;;;;;5026749;28;20029;-66
2022/07/13 12:41:34;;;;;;;5.22;4.30;;;10.30;99.90;;;;;;5025468;28;20053;-67
2022/07/13 12:44:06;;;;;;;6.90;4.80;;;10.30;99.90;;;;;;5014981;28;20096;-67
2022/07/13 12:46:52;;;;;;;7.10;4.85;;;10.20;99.90;;;;;;5005244;28;20022;-67
2022/07/13 12:49:25;;;;;;;6.70;3.90;;;10.30;99.90;;;;;;5007021;28;20068;-66
2022/07/13 12:51:53;;;;;;;6.43;4.10;;;10.30;99.90;;;;;;5006837;28;20045;-69
2022/07/13 12:54:59;;;;;;;4.68;3.72;;;10.30;99.90;;;;;;5007285;28;20095;-66
2022/07/13 12:57:27;;;;;;;5.93;4.10;;;10.30;99.90;;;;;;5043527;28;20800;-71
2022/07/13 13:00:08;;;;;;;6.97;4.47;;;10.40;99.90;;;;;;5044224;28;20052;-67
2022/07/13 13:02:37;;;;;;;4.60;3.90;;;10.30;99.90;;;;;;5008554;28;20048;-67
2022/07/13 13:05:07;;;;;;;5.07;3.85;;;10.30;99.90;;;;;;5019422;28;20060;-66
2022/07/13 13:07:38;;;;;;;5.57;4.10;;;10.40;99.90;;;;;;5025305;28;20509;-69
2022/07/13 13:10:07;;;;;;;5.38;4.00;;;10.30;99.90;;;;;;5019585;28;20030;-68